sensor_id;sensor_type;location;lat;lon;timestamp;P1;durP1;ratioP1;P2;durP2;ratioP2
71423;SDS011;59240;51.370;-0.486;2023-03-21T00:01:46;15.30;;;5.07;;
71423;SDS011;59240;51.370;-0.486;2023-03-21T00:04:15;12.40;;;4.90;;
71423;SDS011;59240;51.370;-0.486;2023-03-21T00:06:42;19.58;;;5.55;;
71423;SDS011;59240;51.370;-0.486;2023-03-21T00:09:09;13.18;;;4.55;;
71423;SDS011;59240;51.370;-0.486;2023-03-21T00:11:35;20.08;;;4.05;;
71423;SDS011;59240;51.370;-0.486;2023-03-21T00:14:03;14.73;;;3.97;;
71423;SDS011;59240;51.370;-0.486;2023-03-21T00:16:31;12.37;;;4.27;;
71423;SDS011;59240;51.370;-0.486;2023-03-21T00:19:01;14.77;;;4.78;;
71423;SDS011;59240;51.370;-0.486;2023-03-21T00:21:28;14.43;;;4.07;;
71423;SDS011;59240;51.370;-0.486;2023-03-21T00:24:18;14.43;;;4.65;;
71423;SDS011;59240;51.370;-0.486;2023-03-21T00:26:45;21.35;;;4.85;;
71423;SDS011;59240;51.370;-0.486;2023-03-21T00:29:12;14.57;;;4.23;;
71423;SDS011;59240;51.370;-0.486;2023-03-21T00:31:38;16.80;;;5.15;;
71423;SDS011;59240;51.370;-0.486;2023-03-21T00:34:05;17.77;;;5.30;;
71423;SDS011;59240;51.370;-0.486;2023-03-21T00:36:32;18.23;;;4.63;;
71423;SDS011;59240;51.370;-0.486;2023-03-21T00:38:59;14.18;;;4.47;;
71423;SDS011;59240;51.370;-0.486;2023-03-21T00:41:26;16.90;;;4.57;;
71423;SDS011;59240;51.370;-0.486;2023-03-21T00:44:07;14.57;;;5.97;;
71423;SDS011;59240;51.370;-0.486;2023-03-21T00:46:35;14.98;;;5.10;;
71423;SDS011;59240;51.370;-0.486;2023-03-21T00:49:16;13.50;;;4.25;;
71423;SDS011;59240;51.370;-0.486;2023-03-21T00:51:46;19.65;;;4.95;;
71423;SDS011;59240;51.370;-0.486;2023-03-21T00:54:16;15.13;;;4.70;;
71423;SDS011;59240;51.370;-0.486;2023-03-21T00:56:43;16.38;;;4.40;;
71423;SDS011;59240;51.370;-0.486;2023-03-21T00:59:10;15.15;;;4.00;;
71423;SDS011;59240;51.370;-0.486;2023-03-21T01:01:36;20.02;;;4.55;;
71423;SDS011;59240;51.370;-0.486;2023-03-21T01:04:06;11.50;;;3.70;;
71423;SDS011;59240;51.370;-0.486;2023-03-21T01:06:39;20.17;;;4.47;;
71423;SDS011;59240;51.370;-0.486;2023-03-21T01:09:15;13.13;;;4.32;;
71423;SDS011;59240;51.370;-0.486;2023-03-21T01:11:45;15.80;;;4.57;;
71423;SDS011;59240;51.370;-0.486;2023-03-21T01:14:12;12.88;;;4.40;;
71423;SDS011;59240;51.370;-0.486;2023-03-21T01:16:49;16.20;;;4.30;;
71423;SDS011;59240;51.370;-0.486;2023-03-21T01:19:17;17.93;;;4.07;;
71423;SDS011;59240;51.370;-0.486;2023-03-21T01:21:56;15.13;;;3.80;;
71423;SDS011;59240;51.370;-0.486;2023-03-21T01:24:23;17.52;;;4.10;;
71423;SDS011;59240;51.370;-0.486;2023-03-21T01:26:49;14.45;;;3.65;;
71423;SDS011;59240;51.370;-0.486;2023-03-21T01:29:16;18.50;;;4.35;;
71423;SDS011;59240;51.370;-0.486;2023-03-21T01:31:43;17.40;;;3.70;;
71423;SDS011;59240;51.370;-0.486;2023-03-21T01:34:10;16.75;;;4.50;;
71423;SDS011;59240;51.370;-0.486;2023-03-21T01:36:36;15.65;;;4.05;;
71423;SDS011;59240;51.370;-0.486;2023-03-21T01:39:03;19.42;;;4.70;;
71423;SDS011;59240;51.370;-0.486;2023-03-21T01:41:38;12.48;;;4.38;;
71423;SDS011;59240;51.370;-0.486;2023-03-21T01:44:16;14.47;;;3.70;;
71423;SDS011;59240;51.370;-0.486;2023-03-21T01:49:36;19.48;;;3.85;;
71423;SDS011;59240;51.370;-0.486;2023-03-21T01:52:07;15.68;;;4.45;;
71423;SDS011;59240;51.370;-0.486;2023-03-21T01:54:49;25.20;;;4.72;;
71423;SDS011;59240;51.370;-0.486;2023-03-21T01:57:23;20.30;;;4.00;;
71423;SDS011;59240;51.370;-0.486;2023-03-21T02:00:09;19.10;;;3.63;;
71423;SDS011;59240;51.370;-0.486;2023-03-21T02:02:39;15.35;;;3.72;;
71423;SDS011;59240;51.370;-0.486;2023-03-21T02:05:18;16.65;;;3.90;;
71423;SDS011;59240;51.370;-0.486;2023-03-21T02:07:47;12.55;;;3.38;;
71423;SDS011;59240;51.370;-0.486;2023-03-21T02:10:18;12.37;;;3.43;;
71423;SDS011;59240;51.370;-0.486;2023-03-21T02:12:44;17.63;;;3.35;;
71423;SDS011;59240;51.370;-0.486;2023-03-21T02:15:11;19.10;;;3.85;;
71423;SDS011;59240;51.370;-0.486;2023-03-21T02:17:44;17.05;;;3.70;;
71423;SDS011;59240;51.370;-0.486;2023-03-21T02:36:51;11.87;;;2.80;;
71423;SDS011;59240;51.370;-0.486;2023-03-21T02:39:37;13.05;;;3.15;;
71423;SDS011;59240;51.370;-0.486;2023-03-21T02:42:21;14.77;;;3.30;;
71423;SDS011;59240;51.370;-0.486;2023-03-21T02:45:01;13.30;;;3.42;;
71423;SDS011;59240;51.370;-0.486;2023-03-21T02:47:48;10.50;;;2.50;;
71423;SDS011;59240;51.370;-0.486;2023-03-21T02:50:20;13.83;;;2.80;;
71423;SDS011;59240;51.370;-0.486;2023-03-21T02:52:51;9.68;;;2.60;;
71423;SDS011;59240;51.370;-0.486;2023-03-21T02:55:29;12.20;;;2.42;;
71423;SDS011;59240;51.370;-0.486;2023-03-21T02:57:57;17.08;;;3.13;;
71423;SDS011;59240;51.370;-0.486;2023-03-21T03:00:37;16.13;;;3.22;;
71423;SDS011;59240;51.370;-0.486;2023-03-21T03:03:05;16.90;;;3.47;;
71423;SDS011;59240;51.370;-0.486;2023-03-21T03:05:42;15.93;;;2.47;;
71423;SDS011;59240;51.370;-0.486;2023-03-21T03:11:31;11.07;;;2.30;;
71423;SDS011;59240;51.370;-0.486;2023-03-21T03:19:29;14.82;;;2.60;;
71423;SDS011;59240;51.370;-0.486;2023-03-21T03:22:16;14.50;;;2.47;;
71423;SDS011;59240;51.370;-0.486;2023-03-21T03:25:02;17.17;;;2.15;;
71423;SDS011;59240;51.370;-0.486;2023-03-21T03:27:52;15.07;;;2.20;;
71423;SDS011;59240;51.370;-0.486;2023-03-21T03:30:21;10.20;;;2.20;;
71423;SDS011;59240;51.370;-0.486;2023-03-21T03:33:04;11.63;;;2.10;;
71423;SDS011;59240;51.370;-0.486;2023-03-21T03:35:34;10.02;;;1.85;;
71423;SDS011;59240;51.370;-0.486;2023-03-21T03:38:01;11.02;;;1.77;;
71423;SDS011;59240;51.370;-0.486;2023-03-21T03:40:36;10.90;;;1.98;;
71423;SDS011;59240;51.370;-0.486;2023-03-21T03:43:09;10.73;;;2.47;;
71423;SDS011;59240;51.370;-0.486;2023-03-21T03:45:43;9.80;;;1.73;;
71423;SDS011;59240;51.370;-0.486;2023-03-21T03:50:49;10.45;;;1.77;;
71423;SDS011;59240;51.370;-0.486;2023-03-21T03:53:27;6.90;;;1.40;;
71423;SDS011;59240;51.370;-0.486;2023-03-21T03:56:00;9.10;;;1.73;;
71423;SDS011;59240;51.370;-0.486;2023-03-21T03:58:28;12.10;;;1.98;;
71423;SDS011;59240;51.370;-0.486;2023-03-21T04:01:10;13.10;;;1.85;;
71423;SDS011;59240;51.370;-0.486;2023-03-21T04:03:37;10.15;;;1.52;;
71423;SDS011;59240;51.370;-0.486;2023-03-21T04:06:15;10.68;;;1.92;;
71423;SDS011;59240;51.370;-0.486;2023-03-21T04:08:43;13.67;;;1.67;;
71423;SDS011;59240;51.370;-0.486;2023-03-21T04:11:12;13.55;;;1.92;;
71423;SDS011;59240;51.370;-0.486;2023-03-21T04:13:40;14.32;;;1.70;;
71423;SDS011;59240;51.370;-0.486;2023-03-21T04:16:08;9.68;;;1.45;;
71423;SDS011;59240;51.370;-0.486;2023-03-21T04:18:35;11.13;;;1.23;;
71423;SDS011;59240;51.370;-0.486;2023-03-21T04:21:08;13.63;;;2.10;;
71423;SDS011;59240;51.370;-0.486;2023-03-21T04:23:35;12.57;;;1.63;;
71423;SDS011;59240;51.370;-0.486;2023-03-21T04:26:03;13.23;;;1.48;;
71423;SDS011;59240;51.370;-0.486;2023-03-21T04:28:31;13.52;;;1.88;;
71423;SDS011;59240;51.370;-0.486;2023-03-21T04:30:58;13.32;;;2.05;;
71423;SDS011;59240;51.370;-0.486;2023-03-21T04:33:33;14.27;;;1.77;;
71423;SDS011;59240;51.370;-0.486;2023-03-21T04:36:04;13.93;;;2.85;;
71423;SDS011;59240;51.370;-0.486;2023-03-21T04:38:34;12.20;;;1.83;;
71423;SDS011;59240;51.370;-0.486;2023-03-21T04:41:01;32.63;;;2.83;;
71423;SDS011;59240;51.370;-0.486;2023-03-21T04:43:28;14.55;;;2.03;;
71423;SDS011;59240;51.370;-0.486;2023-03-21T04:45:55;11.33;;;1.40;;
71423;SDS011;59240;51.370;-0.486;2023-03-21T04:48:22;12.43;;;1.70;;
71423;SDS011;59240;51.370;-0.486;2023-03-21T04:50:50;15.80;;;2.03;;
71423;SDS011;59240;51.370;-0.486;2023-03-21T04:53:17;15.98;;;2.05;;
71423;SDS011;59240;51.370;-0.486;2023-03-21T04:55:44;10.07;;;1.80;;
71423;SDS011;59240;51.370;-0.486;2023-03-21T04:58:10;11.83;;;1.93;;
71423;SDS011;59240;51.370;-0.486;2023-03-21T05:00:37;12.65;;;1.80;;
71423;SDS011;59240;51.370;-0.486;2023-03-21T05:03:05;11.20;;;1.45;;
71423;SDS011;59240;51.370;-0.486;2023-03-21T05:05:37;12.77;;;1.80;;
71423;SDS011;59240;51.370;-0.486;2023-03-21T05:08:04;10.80;;;2.30;;
71423;SDS011;59240;51.370;-0.486;2023-03-21T05:10:31;9.63;;;1.20;;
71423;SDS011;59240;51.370;-0.486;2023-03-21T05:12:59;14.68;;;1.55;;
71423;SDS011;59240;51.370;-0.486;2023-03-21T05:15:25;11.45;;;1.63;;
71423;SDS011;59240;51.370;-0.486;2023-03-21T05:17:52;9.07;;;1.10;;
71423;SDS011;59240;51.370;-0.486;2023-03-21T05:20:19;10.80;;;1.65;;
71423;SDS011;59240;51.370;-0.486;2023-03-21T05:22:45;6.80;;;1.27;;
71423;SDS011;59240;51.370;-0.486;2023-03-21T05:25:16;8.70;;;1.08;;
71423;SDS011;59240;51.370;-0.486;2023-03-21T05:28:00;7.75;;;1.33;;
71423;SDS011;59240;51.370;-0.486;2023-03-21T05:30:27;11.43;;;1.60;;
71423;SDS011;59240;51.370;-0.486;2023-03-21T05:32:54;10.20;;;1.70;;
71423;SDS011;59240;51.370;-0.486;2023-03-21T05:35:21;6.17;;;1.23;;
71423;SDS011;59240;51.370;-0.486;2023-03-21T05:37:48;8.68;;;1.58;;
71423;SDS011;59240;51.370;-0.486;2023-03-21T05:40:14;8.90;;;1.20;;
71423;SDS011;59240;51.370;-0.486;2023-03-21T05:42:41;10.07;;;1.40;;
71423;SDS011;59240;51.370;-0.486;2023-03-21T05:45:08;9.75;;;1.30;;
71423;SDS011;59240;51.370;-0.486;2023-03-21T05:47:35;9.07;;;1.13;;
71423;SDS011;59240;51.370;-0.486;2023-03-21T05:50:01;9.95;;;1.55;;
71423;SDS011;59240;51.370;-0.486;2023-03-21T05:52:28;8.52;;;1.30;;
71423;SDS011;59240;51.370;-0.486;2023-03-21T05:54:55;9.85;;;1.52;;
71423;SDS011;59240;51.370;-0.486;2023-03-21T05:57:22;7.68;;;1.95;;
71423;SDS011;59240;51.370;-0.486;2023-03-21T05:59:49;7.20;;;1.00;;
71423;SDS011;59240;51.370;-0.486;2023-03-21T06:02:16;7.93;;;1.45;;
71423;SDS011;59240;51.370;-0.486;2023-03-21T06:04:49;11.23;;;1.45;;
71423;SDS011;59240;51.370;-0.486;2023-03-21T06:07:18;8.77;;;1.40;;
71423;SDS011;59240;51.370;-0.486;2023-03-21T06:09:45;12.90;;;1.50;;
71423;SDS011;59240;51.370;-0.486;2023-03-21T06:12:14;8.17;;;1.30;;
71423;SDS011;59240;51.370;-0.486;2023-03-21T06:14:47;8.57;;;1.67;;
71423;SDS011;59240;51.370;-0.486;2023-03-21T06:17:14;7.53;;;1.58;;
71423;SDS011;59240;51.370;-0.486;2023-03-21T06:19:41;10.10;;;1.63;;
71423;SDS011;59240;51.370;-0.486;2023-03-21T06:22:08;9.07;;;1.70;;
71423;SDS011;59240;51.370;-0.486;2023-03-21T06:24:34;9.87;;;1.40;;
71423;SDS011;59240;51.370;-0.486;2023-03-21T06:27:18;9.18;;;1.50;;
71423;SDS011;59240;51.370;-0.486;2023-03-21T06:29:46;6.35;;;1.48;;
71423;SDS011;59240;51.370;-0.486;2023-03-21T06:32:14;8.35;;;1.17;;
71423;SDS011;59240;51.370;-0.486;2023-03-21T06:34:45;8.55;;;1.30;;
71423;SDS011;59240;51.370;-0.486;2023-03-21T06:37:12;6.73;;;1.27;;
71423;SDS011;59240;51.370;-0.486;2023-03-21T06:39:39;8.85;;;1.20;;
71423;SDS011;59240;51.370;-0.486;2023-03-21T06:42:25;8.85;;;1.40;;
71423;SDS011;59240;51.370;-0.486;2023-03-21T06:44:57;9.75;;;1.10;;
71423;SDS011;59240;51.370;-0.486;2023-03-21T06:47:24;6.85;;;1.20;;
71423;SDS011;59240;51.370;-0.486;2023-03-21T06:50:10;9.70;;;1.07;;
71423;SDS011;59240;51.370;-0.486;2023-03-21T06:57:01;4.72;;;1.00;;
71423;SDS011;59240;51.370;-0.486;2023-03-21T07:00:00;8.13;;;1.00;;
71423;SDS011;59240;51.370;-0.486;2023-03-21T07:05:53;8.50;;;1.03;;
71423;SDS011;59240;51.370;-0.486;2023-03-21T07:08:37;7.05;;;0.73;;
71423;SDS011;59240;51.370;-0.486;2023-03-21T07:11:20;5.85;;;0.80;;
71423;SDS011;59240;51.370;-0.486;2023-03-21T07:14:17;6.78;;;1.00;;
71423;SDS011;59240;51.370;-0.486;2023-03-21T07:16:53;2.65;;;0.50;;
71423;SDS011;59240;51.370;-0.486;2023-03-21T07:19:32;6.37;;;0.60;;
71423;SDS011;59240;51.370;-0.486;2023-03-21T07:22:18;4.82;;;0.70;;
71423;SDS011;59240;51.370;-0.486;2023-03-21T07:24:49;6.70;;;0.70;;
71423;SDS011;59240;51.370;-0.486;2023-03-21T07:27:35;4.45;;;0.75;;
71423;SDS011;59240;51.370;-0.486;2023-03-21T07:31:37;6.70;;;0.80;;
71423;SDS011;59240;51.370;-0.486;2023-03-21T07:34:05;6.20;;;0.83;;
71423;SDS011;59240;51.370;-0.486;2023-03-21T07:36:34;5.57;;;0.65;;
71423;SDS011;59240;51.370;-0.486;2023-03-21T07:49:28;5.37;;;0.50;;
71423;SDS011;59240;51.370;-0.486;2023-03-21T07:52:49;4.32;;;0.50;;
71423;SDS011;59240;51.370;-0.486;2023-03-21T07:56:08;4.05;;;0.47;;
71423;SDS011;59240;51.370;-0.486;2023-03-21T07:59:04;4.80;;;0.82;;
71423;SDS011;59240;51.370;-0.486;2023-03-21T08:02:02;8.38;;;1.25;;
71423;SDS011;59240;51.370;-0.486;2023-03-21T08:09:12;7.80;;;1.10;;
71423;SDS011;59240;51.370;-0.486;2023-03-21T08:21:46;9.13;;;1.23;;
71423;SDS011;59240;51.370;-0.486;2023-03-21T08:37:42;14.17;;;1.70;;
71423;SDS011;59240;51.370;-0.486;2023-03-21T08:44:15;9.32;;;1.60;;
71423;SDS011;59240;51.370;-0.486;2023-03-21T08:53:45;12.77;;;1.30;;
71423;SDS011;59240;51.370;-0.486;2023-03-21T08:59:10;8.80;;;1.63;;
71423;SDS011;59240;51.370;-0.486;2023-03-21T09:01:46;7.53;;;1.15;;
71423;SDS011;59240;51.370;-0.486;2023-03-21T09:04:23;14.07;;;1.90;;
71423;SDS011;59240;51.370;-0.486;2023-03-21T09:06:56;9.03;;;1.10;;
71423;SDS011;59240;51.370;-0.486;2023-03-21T09:09:34;10.60;;;1.45;;
71423;SDS011;59240;51.370;-0.486;2023-03-21T09:12:00;9.43;;;0.93;;
71423;SDS011;59240;51.370;-0.486;2023-03-21T09:14:27;14.75;;;0.90;;
71423;SDS011;59240;51.370;-0.486;2023-03-21T09:17:06;11.55;;;1.15;;
71423;SDS011;59240;51.370;-0.486;2023-03-21T09:20:38;13.00;;;1.23;;
71423;SDS011;59240;51.370;-0.486;2023-03-21T09:26:35;6.95;;;1.33;;
71423;SDS011;59240;51.370;-0.486;2023-03-21T09:29:28;7.03;;;0.80;;
71423;SDS011;59240;51.370;-0.486;2023-03-21T09:32:06;7.60;;;0.90;;
71423;SDS011;59240;51.370;-0.486;2023-03-21T09:34:36;8.47;;;1.23;;
71423;SDS011;59240;51.370;-0.486;2023-03-21T09:37:20;11.55;;;1.50;;
71423;SDS011;59240;51.370;-0.486;2023-03-21T09:39:51;12.52;;;1.50;;
71423;SDS011;59240;51.370;-0.486;2023-03-21T09:42:57;8.90;;;0.88;;
71423;SDS011;59240;51.370;-0.486;2023-03-21T09:49:02;9.50;;;0.70;;
71423;SDS011;59240;51.370;-0.486;2023-03-21T09:51:35;10.35;;;1.48;;
71423;SDS011;59240;51.370;-0.486;2023-03-21T09:54:17;8.90;;;1.20;;
71423;SDS011;59240;51.370;-0.486;2023-03-21T09:57:01;7.55;;;0.88;;
71423;SDS011;59240;51.370;-0.486;2023-03-21T09:59:43;15.65;;;0.95;;
71423;SDS011;59240;51.370;-0.486;2023-03-21T10:05:35;8.00;;;0.77;;
71423;SDS011;59240;51.370;-0.486;2023-03-21T10:12:01;5.82;;;0.65;;
71423;SDS011;59240;51.370;-0.486;2023-03-21T10:14:39;6.90;;;0.70;;
71423;SDS011;59240;51.370;-0.486;2023-03-21T10:21:10;3.20;;;0.32;;
71423;SDS011;59240;51.370;-0.486;2023-03-21T10:23:32;9.30;;;1.25;;
71423;SDS011;59240;51.370;-0.486;2023-03-21T10:26:39;5.47;;;0.50;;
71423;SDS011;59240;51.370;-0.486;2023-03-21T10:29:26;5.38;;;0.45;;
71423;SDS011;59240;51.370;-0.486;2023-03-21T10:35:26;7.82;;;0.70;;
71423;SDS011;59240;51.370;-0.486;2023-03-21T10:38:09;5.35;;;0.50;;
71423;SDS011;59240;51.370;-0.486;2023-03-21T10:48:11;4.40;;;0.70;;
71423;SDS011;59240;51.370;-0.486;2023-03-21T10:50:58;12.20;;;0.55;;
71423;SDS011;59240;51.370;-0.486;2023-03-21T10:53:38;4.70;;;0.55;;
71423;SDS011;59240;51.370;-0.486;2023-03-21T10:56:21;4.60;;;0.70;;
71423;SDS011;59240;51.370;-0.486;2023-03-21T10:58:59;6.72;;;0.60;;
71423;SDS011;59240;51.370;-0.486;2023-03-21T11:01:38;6.80;;;0.60;;
71423;SDS011;59240;51.370;-0.486;2023-03-21T11:04:23;10.93;;;0.52;;
71423;SDS011;59240;51.370;-0.486;2023-03-21T11:06:57;5.63;;;0.80;;
71423;SDS011;59240;51.370;-0.486;2023-03-21T11:09:47;9.32;;;0.70;;
71423;SDS011;59240;51.370;-0.486;2023-03-21T11:12:55;5.57;;;0.45;;
71423;SDS011;59240;51.370;-0.486;2023-03-21T11:15:57;5.90;;;0.70;;
71423;SDS011;59240;51.370;-0.486;2023-03-21T11:18:33;5.57;;;0.32;;
71423;SDS011;59240;51.370;-0.486;2023-03-21T11:21:13;4.72;;;0.63;;
71423;SDS011;59240;51.370;-0.486;2023-03-21T11:23:47;8.18;;;0.57;;
71423;SDS011;59240;51.370;-0.486;2023-03-21T11:26:21;4.78;;;0.40;;
71423;SDS011;59240;51.370;-0.486;2023-03-21T11:29:59;7.83;;;1.27;;
71423;SDS011;59240;51.370;-0.486;2023-03-21T11:32:34;5.80;;;1.00;;
71423;SDS011;59240;51.370;-0.486;2023-03-21T11:38:23;6.32;;;0.68;;
71423;SDS011;59240;51.370;-0.486;2023-03-21T11:41:46;7.03;;;0.73;;
71423;SDS011;59240;51.370;-0.486;2023-03-21T12:23:57;9.53;;;0.90;;
71423;SDS011;59240;51.370;-0.486;2023-03-21T12:38:38;10.40;;;1.05;;
71423;SDS011;59240;51.370;-0.486;2023-03-21T12:58:59;10.13;;;0.80;;
71423;SDS011;59240;51.370;-0.486;2023-03-21T13:06:27;8.38;;;1.13;;
71423;SDS011;59240;51.370;-0.486;2023-03-21T13:10:27;6.00;;;0.30;;
71423;SDS011;59240;51.370;-0.486;2023-03-21T13:34:21;6.22;;;0.70;;
71423;SDS011;59240;51.370;-0.486;2023-03-21T13:50:59;7.47;;;0.45;;
71423;SDS011;59240;51.370;-0.486;2023-03-21T13:57:19;9.93;;;0.85;;
71423;SDS011;59240;51.370;-0.486;2023-03-21T14:14:37;8.60;;;0.95;;
71423;SDS011;59240;51.370;-0.486;2023-03-21T14:17:51;9.63;;;1.10;;
71423;SDS011;59240;51.370;-0.486;2023-03-21T14:21:59;11.63;;;1.35;;
71423;SDS011;59240;51.370;-0.486;2023-03-21T14:24:33;10.93;;;1.33;;
71423;SDS011;59240;51.370;-0.486;2023-03-21T14:27:14;10.77;;;0.93;;
71423;SDS011;59240;51.370;-0.486;2023-03-21T14:33:35;7.03;;;0.90;;
71423;SDS011;59240;51.370;-0.486;2023-03-21T14:36:10;10.43;;;0.70;;
71423;SDS011;59240;51.370;-0.486;2023-03-21T14:42:26;9.20;;;1.40;;
71423;SDS011;59240;51.370;-0.486;2023-03-21T14:49:44;7.47;;;0.70;;
71423;SDS011;59240;51.370;-0.486;2023-03-21T14:52:53;11.15;;;1.10;;
71423;SDS011;59240;51.370;-0.486;2023-03-21T15:00:14;9.60;;;1.10;;
71423;SDS011;59240;51.370;-0.486;2023-03-21T15:03:27;11.85;;;0.80;;
71423;SDS011;59240;51.370;-0.486;2023-03-21T15:06:21;9.40;;;1.00;;
71423;SDS011;59240;51.370;-0.486;2023-03-21T15:09:05;5.88;;;1.00;;
71423;SDS011;59240;51.370;-0.486;2023-03-21T15:22:56;10.73;;;1.48;;
71423;SDS011;59240;51.370;-0.486;2023-03-21T15:28:57;11.93;;;1.67;;
71423;SDS011;59240;51.370;-0.486;2023-03-21T15:32:02;12.50;;;1.30;;
71423;SDS011;59240;51.370;-0.486;2023-03-21T15:56:32;10.85;;;1.10;;
71423;SDS011;59240;51.370;-0.486;2023-03-21T15:59:40;6.68;;;0.68;;
71423;SDS011;59240;51.370;-0.486;2023-03-21T16:02:22;9.85;;;0.90;;
71423;SDS011;59240;51.370;-0.486;2023-03-21T16:13:59;12.25;;;1.25;;
71423;SDS011;59240;51.370;-0.486;2023-03-21T16:41:25;10.30;;;0.90;;
71423;SDS011;59240;51.370;-0.486;2023-03-21T16:44:27;10.40;;;0.90;;
71423;SDS011;59240;51.370;-0.486;2023-03-21T16:54:31;14.35;;;1.70;;
71423;SDS011;59240;51.370;-0.486;2023-03-21T17:15:25;11.43;;;0.90;;
71423;SDS011;59240;51.370;-0.486;2023-03-21T17:18:27;12.77;;;1.42;;
71423;SDS011;59240;51.370;-0.486;2023-03-21T17:21:39;14.17;;;1.33;;
71423;SDS011;59240;51.370;-0.486;2023-03-21T17:32:32;10.52;;;0.90;;
71423;SDS011;59240;51.370;-0.486;2023-03-21T17:39:51;6.33;;;0.63;;
71423;SDS011;59240;51.370;-0.486;2023-03-21T18:21:14;11.07;;;1.00;;
71423;SDS011;59240;51.370;-0.486;2023-03-21T18:24:27;10.63;;;0.75;;
71423;SDS011;59240;51.370;-0.486;2023-03-21T18:27:11;6.50;;;1.20;;
71423;SDS011;59240;51.370;-0.486;2023-03-21T18:30:23;12.02;;;0.80;;
71423;SDS011;59240;51.370;-0.486;2023-03-21T18:34:15;8.63;;;1.60;;
71423;SDS011;59240;51.370;-0.486;2023-03-21T18:36:42;11.07;;;0.80;;
71423;SDS011;59240;51.370;-0.486;2023-03-21T18:47:30;5.10;;;0.52;;
71423;SDS011;59240;51.370;-0.486;2023-03-21T18:50:00;9.18;;;0.95;;
71423;SDS011;59240;51.370;-0.486;2023-03-21T18:52:53;7.63;;;0.80;;
71423;SDS011;59240;51.370;-0.486;2023-03-21T18:55:34;11.73;;;0.95;;
71423;SDS011;59240;51.370;-0.486;2023-03-21T18:58:56;13.30;;;1.83;;
71423;SDS011;59240;51.370;-0.486;2023-03-21T19:01:39;15.30;;;2.08;;
71423;SDS011;59240;51.370;-0.486;2023-03-21T19:05:03;13.70;;;1.48;;
71423;SDS011;59240;51.370;-0.486;2023-03-21T19:07:44;10.97;;;1.40;;
71423;SDS011;59240;51.370;-0.486;2023-03-21T19:11:16;10.70;;;1.45;;
71423;SDS011;59240;51.370;-0.486;2023-03-21T19:14:17;11.88;;;1.48;;
71423;SDS011;59240;51.370;-0.486;2023-03-21T19:17:26;13.02;;;1.38;;
71423;SDS011;59240;51.370;-0.486;2023-03-21T19:20:40;13.27;;;1.98;;
71423;SDS011;59240;51.370;-0.486;2023-03-21T19:24:04;11.27;;;1.00;;
71423;SDS011;59240;51.370;-0.486;2023-03-21T19:27:22;13.52;;;1.75;;
71423;SDS011;59240;51.370;-0.486;2023-03-21T19:30:41;7.90;;;0.80;;
71423;SDS011;59240;51.370;-0.486;2023-03-21T19:45:57;14.00;;;1.35;;
71423;SDS011;59240;51.370;-0.486;2023-03-21T19:50:01;10.55;;;1.00;;
71423;SDS011;59240;51.370;-0.486;2023-03-21T20:18:52;13.43;;;0.90;;
71423;SDS011;59240;51.370;-0.486;2023-03-21T20:22:26;12.47;;;0.97;;
71423;SDS011;59240;51.370;-0.486;2023-03-21T20:25:31;6.88;;;0.82;;
71423;SDS011;59240;51.370;-0.486;2023-03-21T20:40:10;9.63;;;1.00;;
71423;SDS011;59240;51.370;-0.486;2023-03-21T20:43:26;8.05;;;0.85;;
71423;SDS011;59240;51.370;-0.486;2023-03-21T20:54:10;6.70;;;0.65;;
71423;SDS011;59240;51.370;-0.486;2023-03-21T21:04:51;8.75;;;0.60;;
71423;SDS011;59240;51.370;-0.486;2023-03-21T21:08:14;11.57;;;1.00;;
71423;SDS011;59240;51.370;-0.486;2023-03-21T21:11:39;9.73;;;0.82;;
71423;SDS011;59240;51.370;-0.486;2023-03-21T21:14:57;8.87;;;0.93;;
71423;SDS011;59240;51.370;-0.486;2023-03-21T21:17:55;7.88;;;1.15;;
71423;SDS011;59240;51.370;-0.486;2023-03-21T21:27:51;8.27;;;1.00;;
71423;SDS011;59240;51.370;-0.486;2023-03-21T21:39:55;11.55;;;1.33;;
71423;SDS011;59240;51.370;-0.486;2023-03-21T21:43:42;9.43;;;1.10;;
71423;SDS011;59240;51.370;-0.486;2023-03-21T21:46:45;8.23;;;0.77;;
71423;SDS011;59240;51.370;-0.486;2023-03-21T21:49:30;12.17;;;1.77;;
71423;SDS011;59240;51.370;-0.486;2023-03-21T21:53:34;10.13;;;1.38;;
71423;SDS011;59240;51.370;-0.486;2023-03-21T21:56:02;8.18;;;0.85;;
71423;SDS011;59240;51.370;-0.486;2023-03-21T22:01:54;12.00;;;0.93;;
71423;SDS011;59240;51.370;-0.486;2023-03-21T22:04:45;7.83;;;1.67;;
71423;SDS011;59240;51.370;-0.486;2023-03-21T22:07:46;9.65;;;1.00;;
71423;SDS011;59240;51.370;-0.486;2023-03-21T22:14:35;13.80;;;1.50;;
71423;SDS011;59240;51.370;-0.486;2023-03-21T22:17:08;6.43;;;0.70;;
71423;SDS011;59240;51.370;-0.486;2023-03-21T22:19:38;9.40;;;1.00;;
71423;SDS011;59240;51.370;-0.486;2023-03-21T22:22:34;10.23;;;1.00;;
71423;SDS011;59240;51.370;-0.486;2023-03-21T22:28:43;8.05;;;1.48;;
71423;SDS011;59240;51.370;-0.486;2023-03-21T22:31:36;14.38;;;0.95;;
71423;SDS011;59240;51.370;-0.486;2023-03-21T22:34:21;6.97;;;1.00;;
71423;SDS011;59240;51.370;-0.486;2023-03-21T22:37:15;9.63;;;1.42;;
71423;SDS011;59240;51.370;-0.486;2023-03-21T22:39:55;12.05;;;1.05;;
71423;SDS011;59240;51.370;-0.486;2023-03-21T22:45:23;11.63;;;0.77;;
71423;SDS011;59240;51.370;-0.486;2023-03-21T22:47:52;6.77;;;0.60;;
71423;SDS011;59240;51.370;-0.486;2023-03-21T22:50:19;12.77;;;1.40;;
71423;SDS011;59240;51.370;-0.486;2023-03-21T22:53:09;14.43;;;1.27;;
71423;SDS011;59240;51.370;-0.486;2023-03-21T22:55:45;14.20;;;0.85;;
71423;SDS011;59240;51.370;-0.486;2023-03-21T22:58:12;6.78;;;0.60;;
71423;SDS011;59240;51.370;-0.486;2023-03-21T23:00:42;9.03;;;0.70;;
71423;SDS011;59240;51.370;-0.486;2023-03-21T23:03:09;8.32;;;0.85;;
71423;SDS011;59240;51.370;-0.486;2023-03-21T23:05:48;9.38;;;1.42;;
71423;SDS011;59240;51.370;-0.486;2023-03-21T23:08:17;11.95;;;0.82;;
71423;SDS011;59240;51.370;-0.486;2023-03-21T23:10:44;10.05;;;0.93;;
71423;SDS011;59240;51.370;-0.486;2023-03-21T23:13:11;12.60;;;1.03;;
71423;SDS011;59240;51.370;-0.486;2023-03-21T23:15:45;11.73;;;1.23;;
71423;SDS011;59240;51.370;-0.486;2023-03-21T23:18:14;15.75;;;1.50;;
71423;SDS011;59240;51.370;-0.486;2023-03-21T23:20:41;14.52;;;1.05;;
71423;SDS011;59240;51.370;-0.486;2023-03-21T23:23:08;11.57;;;1.00;;
71423;SDS011;59240;51.370;-0.486;2023-03-21T23:25:35;10.93;;;1.53;;
71423;SDS011;59240;51.370;-0.486;2023-03-21T23:28:05;6.25;;;0.57;;
71423;SDS011;59240;51.370;-0.486;2023-03-21T23:30:34;9.20;;;0.90;;
71423;SDS011;59240;51.370;-0.486;2023-03-21T23:33:02;7.07;;;1.02;;
71423;SDS011;59240;51.370;-0.486;2023-03-21T23:35:29;12.55;;;0.93;;
71423;SDS011;59240;51.370;-0.486;2023-03-21T23:38:03;12.47;;;0.90;;
71423;SDS011;59240;51.370;-0.486;2023-03-21T23:40:30;9.75;;;1.08;;
71423;SDS011;59240;51.370;-0.486;2023-03-21T23:42:57;10.98;;;0.95;;
71423;SDS011;59240;51.370;-0.486;2023-03-21T23:45:24;13.10;;;0.98;;
71423;SDS011;59240;51.370;-0.486;2023-03-21T23:47:52;10.52;;;0.93;;
71423;SDS011;59240;51.370;-0.486;2023-03-21T23:50:19;9.53;;;1.40;;
71423;SDS011;59240;51.370;-0.486;2023-03-21T23:52:45;10.15;;;1.17;;
71423;SDS011;59240;51.370;-0.486;2023-03-21T23:55:12;10.63;;;0.85;;
71423;SDS011;59240;51.370;-0.486;2023-03-21T23:57:38;12.40;;;0.50;;
